Time;durP1;ratioP1;P1;durP2;ratioP2;P2;SDS_P1;SDS_P2;PMS_P1;PMS_P2;Temp;Humidity;BMP_temperature;BMP_pressure;BME280_temperature;BME280_humidity;BME280_pressure;Samples;Min_cycle;Max_cycle;Signal;HPM_P1;HPM_P2
2022/06/24 00:01:28;;;;;;;7.03;6.43;;;21.40;77.00;;;20.56;67.31;97363.25;5034373;27;20530;-70
2022/06/24 00:03:55;;;;;;;6.20;5.70;;;21.30;77.40;;;20.50;67.53;97364.41;5022600;27;20466;-72
2022/06/24 00:06:22;;;;;;;5.70;5.20;;;21.30;77.70;;;20.47;67.69;97365.84;5016740;28;20802;-71
2022/06/24 00:08:53;;;;;;;7.00;5.80;;;21.20;78.00;;;20.43;68.06;97367.53;5026267;28;20472;-71
2022/06/24 00:11:27;;;;;;;6.80;5.83;;;21.20;78.40;;;20.37;68.27;97364.03;5081753;27;20865;-71
2022/06/24 00:14:07;;;;;;;6.10;5.70;;;21.10;78.80;;;20.38;68.43;97371.16;5022880;27;20515;-70
2022/06/24 00:16:54;;;;;;;6.70;6.00;;;21.10;79.10;;;20.26;68.59;97357.09;5026215;28;20459;-71
2022/06/24 00:19:23;;;;;;;5.23;4.83;;;21.10;79.40;;;20.25;68.65;97366.41;5012988;28;20501;-74
2022/06/24 00:22:04;;;;;;;6.00;5.50;;;21.00;79.50;;;20.23;68.92;97374.09;5025178;27;20453;-70
2022/06/24 00:24:35;;;;;;;6.83;6.20;;;21.00;79.80;;;20.28;68.88;97370.47;5018995;27;20454;-71
2022/06/24 00:27:16;;;;;;;6.27;5.77;;;21.00;80.10;;;19.97;69.30;97344.28;5024696;27;20456;-70
2022/06/24 00:29:44;;;;;;;6.57;5.97;;;20.90;80.30;;;20.11;69.60;97366.31;5023871;28;20465;-70
2022/06/24 00:32:11;;;;;;;7.00;6.50;;;20.90;80.60;;;20.06;69.74;97367.19;5021751;28;20467;-71
2022/06/24 00:34:41;;;;;;;11.20;5.50;;;20.80;80.80;;;20.09;69.70;97366.63;5041084;27;20565;-71
2022/06/24 00:37:29;;;;;;;7.23;6.17;;;20.80;80.90;;;20.01;69.67;97366.44;5017307;28;20515;-73
2022/06/24 00:39:58;;;;;;;7.67;6.30;;;20.80;81.00;;;20.06;69.73;97369.94;5024463;28;20498;-73
2022/06/24 00:42:28;;;;;;;7.27;6.57;;;20.80;81.10;;;20.00;69.77;97360.16;5028862;27;20476;-73
2022/06/24 00:45:14;;;;;;;6.90;6.17;;;20.80;81.20;;;19.99;70.12;97368.66;5024841;28;20458;-71
2022/06/24 00:47:43;;;;;;;7.70;7.10;;;20.70;81.40;;;20.00;70.00;97360.16;5019531;28;20482;-71
2022/06/24 00:50:23;;;;;;;6.87;6.30;;;20.70;81.60;;;19.88;69.99;97352.31;5016903;27;20460;-72
2022/06/24 00:52:54;;;;;;;7.17;6.57;;;20.70;81.60;;;19.89;70.64;97362.19;5035786;27;20797;-70
2022/06/24 00:55:25;;;;;;;7.10;6.40;;;20.60;81.80;;;19.72;70.91;97359.09;5022830;28;20510;-70
2022/06/24 00:57:54;;;;;;;10.83;6.93;;;20.60;82.10;;;19.84;70.70;97353.19;5014707;28;20467;-73
2022/06/24 01:00:25;;;;;;;7.90;7.20;;;20.60;82.30;;;19.86;70.58;97354.50;5031479;27;20462;-71
2022/06/24 01:02:59;;;;;;;7.80;6.67;;;20.60;82.50;;;19.87;70.69;97358.09;5031951;27;20557;-72
2022/06/24 01:05:27;;;;;;;6.40;5.80;;;20.60;82.50;;;19.84;70.86;97353.19;5014460;28;20458;-71
2022/06/24 01:07:55;;;;;;;7.43;6.83;;;20.60;82.70;;;19.82;71.16;97351.56;5007185;28;20454;-70
2022/06/24 01:10:23;;;;;;;8.53;7.60;;;20.60;82.80;;;19.90;70.55;97347.34;5007101;28;20483;-70
2022/06/24 01:12:51;;;;;;;9.80;6.93;;;20.60;82.60;;;19.80;70.98;97351.03;5016810;28;20473;-71
2022/06/24 01:15:19;;;;;;;8.00;7.20;;;20.60;82.80;;;19.84;71.19;97344.97;5023508;28;20491;-71
2022/06/24 01:17:47;;;;;;;8.43;7.43;;;20.50;83.10;;;19.84;70.99;97342.22;5021417;28;20491;-71
2022/06/24 01:20:14;;;;;;;7.30;6.60;;;20.50;83.10;;;19.87;71.12;97338.91;5017612;28;20937;-72
2022/06/24 01:22:43;;;;;;;9.13;7.30;;;20.50;83.30;;;19.90;70.88;97341.03;5020005;28;20447;-70
2022/06/24 01:25:12;;;;;;;7.90;6.97;;;20.60;83.10;;;19.68;71.28;97325.97;5016210;28;20475;-71
2022/06/24 01:27:40;;;;;;;7.77;7.07;;;20.50;83.40;;;19.75;71.65;97336.59;5020906;28;20481;-71
2022/06/24 01:30:10;;;;;;;8.37;7.57;;;20.50;83.80;;;19.75;71.52;97351.09;5021771;28;20531;-70
2022/06/24 01:32:38;;;;;;;7.83;7.13;;;20.50;83.60;;;19.66;71.78;97361.88;5021461;27;20462;-71
2022/06/24 01:35:07;;;;;;;7.40;6.90;;;20.40;84.10;;;19.74;71.60;97368.63;5020699;28;20490;-71
2022/06/24 01:37:34;;;;;;;7.87;7.10;;;20.40;84.30;;;19.71;71.82;97365.66;5010341;28;20518;-70
2022/06/24 01:40:03;;;;;;;6.80;6.30;;;20.40;84.00;;;19.64;72.18;97363.28;5022691;27;21013;-71
2022/06/24 01:42:30;;;;;;;7.43;6.70;;;20.30;84.50;;;19.54;72.76;97361.44;5029407;27;21167;-70
2022/06/24 01:44:58;;;;;;;8.90;7.60;;;20.30;84.80;;;19.63;72.82;97367.94;5020975;28;20510;-70
2022/06/24 01:47:25;;;;;;;8.57;7.37;;;20.30;85.20;;;19.80;72.02;97355.69;5021868;28;20482;-74
2022/06/24 01:49:52;;;;;;;9.70;7.07;;;20.40;85.30;;;19.93;71.56;97365.16;5023049;28;20469;-71
2022/06/24 01:52:20;;;;;;;7.53;6.83;;;20.50;84.70;;;19.99;71.07;97374.13;5022805;28;20498;-71
2022/06/24 01:54:47;;;;;;;7.93;7.20;;;20.60;84.40;;;19.90;71.46;97368.47;5033293;28;20479;-71
2022/06/24 01:57:16;;;;;;;16.87;7.00;;;20.60;84.20;;;19.95;71.20;97369.25;5008550;28;20456;-70
2022/06/24 01:59:43;;;;;;;6.50;5.60;;;20.60;84.20;;;19.90;70.94;97365.72;5018152;27;20869;-72
2022/06/24 02:02:10;;;;;;;5.50;5.10;;;20.60;83.80;;;19.82;71.17;97362.53;5012575;28;20463;-70
2022/06/24 02:04:37;;;;;;;5.90;4.70;;;20.60;83.80;;;19.86;70.74;97361.94;5012559;28;20456;-72
2022/06/24 02:07:05;;;;;;;4.87;3.93;;;20.60;83.50;;;19.87;70.00;97361.66;5010691;28;20473;-71
2022/06/24 02:13:26;;;;;;;6.40;4.00;;;20.60;83.00;;;19.87;69.79;97366.31;5022569;27;20482;-71
2022/06/24 02:15:07;;;;;;;4.97;3.03;;;20.60;83.00;;;19.73;69.88;97349.75;5014802;27;20633;-71
2022/06/24 02:17:34;;;;;;;5.27;4.10;;;20.60;82.70;;;19.70;70.31;97347.59;5018313;28;20477;-71
2022/06/24 02:20:02;;;;;;;7.00;3.80;;;20.50;82.80;;;19.71;70.37;97347.31;5014114;28;21037;-69
2022/06/24 02:22:29;;;;;;;5.30;3.70;;;20.50;83.00;;;19.69;70.27;97341.31;5021409;28;20446;-69
2022/06/24 02:24:56;;;;;;;5.40;3.30;;;20.50;83.00;;;19.53;70.87;97346.94;5016355;28;20458;-71
2022/06/24 02:27:25;;;;;;;9.10;3.77;;;20.40;83.20;;;19.49;71.05;97348.66;5025748;28;20999;-75
2022/06/24 02:29:53;;;;;;;5.40;3.27;;;20.30;83.30;;;19.47;71.24;97348.09;5016106;28;20523;-71
2022/06/24 02:32:20;;;;;;;5.60;3.40;;;20.30;83.50;;;19.51;70.89;97351.91;5019439;28;20463;-70
2022/06/24 02:34:47;;;;;;;5.43;3.23;;;20.30;83.50;;;19.39;71.41;97352.28;5026919;28;20481;-70
2022/06/24 02:37:15;;;;;;;4.37;3.30;;;20.20;83.80;;;19.27;71.04;97312.72;5020915;28;21040;-72
2022/06/24 02:39:42;;;;;;;4.73;2.80;;;20.20;83.70;;;19.34;72.08;97362.50;5036750;28;20458;-71
2022/06/24 02:42:09;;;;;;;10.83;3.33;;;20.20;83.90;;;19.28;72.16;97355.41;5019159;28;20458;-71
2022/06/24 02:44:38;;;;;;;5.50;3.10;;;20.10;84.20;;;19.33;72.17;97352.63;5018403;28;20643;-72
2022/06/24 02:47:06;;;;;;;5.20;3.20;;;20.10;84.40;;;19.39;72.01;97359.69;5018608;28;20467;-71
2022/06/24 02:49:33;;;;;;;4.13;3.20;;;20.10;84.40;;;19.31;72.29;97355.66;5020099;28;20528;-70
2022/06/24 02:52:00;;;;;;;5.83;3.17;;;20.10;84.40;;;19.27;72.68;97353.78;5026921;28;20462;-70
2022/06/24 02:54:27;;;;;;;4.73;3.30;;;20.10;84.70;;;19.21;72.81;97351.13;5026637;28;20474;-71
2022/06/24 02:56:54;;;;;;;4.90;3.63;;;20.00;84.70;;;19.25;72.66;97349.41;5044532;28;20447;-70
2022/06/24 02:59:22;;;;;;;4.43;3.03;;;20.10;84.80;;;19.39;72.31;97354.22;5025613;28;20948;-70
2022/06/24 03:01:51;;;;;;;4.20;3.17;;;20.10;84.80;;;19.45;72.01;97358.53;5016643;27;20462;-73
2022/06/24 03:04:18;;;;;;;6.53;3.53;;;20.20;84.50;;;19.50;71.88;97361.22;5010651;28;20462;-71
2022/06/24 03:06:45;;;;;;;4.30;2.80;;;20.30;84.50;;;19.55;71.68;97360.34;5027945;28;20465;-71
2022/06/24 03:09:13;;;;;;;5.13;2.43;;;20.30;84.30;;;19.59;71.20;97355.09;5026899;27;20446;-71
2022/06/24 03:11:40;;;;;;;5.87;2.87;;;20.40;84.10;;;19.48;71.60;97347.00;5022745;28;20458;-71
2022/06/24 03:14:07;;;;;;;6.70;2.70;;;20.30;84.10;;;19.52;71.70;97349.97;5023658;28;20553;-70
2022/06/24 03:16:34;;;;;;;3.07;2.67;;;20.30;84.10;;;19.58;71.34;97340.59;5022961;28;20473;-71
2022/06/24 03:19:03;;;;;;;4.07;2.80;;;20.40;84.00;;;19.69;70.99;97352.25;5008271;27;20597;-71
2022/06/24 03:21:30;;;;;;;4.37;3.10;;;20.40;83.90;;;19.82;70.63;97358.94;5019150;27;20581;-72
2022/06/24 03:23:58;;;;;;;7.27;4.00;;;20.60;83.70;;;19.61;71.89;97361.09;5022691;28;21371;-72
2022/06/24 03:26:25;;;;;;;10.07;3.30;;;20.40;84.20;;;19.67;72.03;97357.22;5025182;28;20469;-73
2022/06/24 03:28:52;;;;;;;3.90;3.47;;;20.50;84.50;;;19.56;72.30;97367.44;5024251;28;20487;-71
2022/06/24 03:31:19;;;;;;;7.10;3.43;;;20.40;84.50;;;19.54;73.00;97362.28;5025863;27;20452;-71
2022/06/24 03:33:46;;;;;;;4.30;2.50;;;20.30;85.50;;;19.80;71.69;97363.91;5013134;27;21019;-70
2022/06/24 03:36:16;;;;;;;3.57;2.30;;;20.50;84.80;;;19.72;72.04;97367.31;5011598;28;20568;-72
2022/06/24 03:38:43;;;;;;;7.73;2.97;;;20.50;84.90;;;19.60;72.57;97351.25;5034659;27;20463;-72
2022/06/24 03:41:10;;;;;;;5.90;2.97;;;20.50;85.00;;;19.73;72.38;97367.00;5049785;27;20471;-70
2022/06/24 03:43:38;;;;;;;6.33;2.23;;;20.40;85.10;;;19.77;71.88;97359.81;5024797;28;20465;-72
2022/06/24 03:46:05;;;;;;;6.17;3.00;;;20.50;85.00;;;19.60;73.24;97362.22;5023023;28;20463;-70
2022/06/24 03:48:32;;;;;;;6.40;2.60;;;20.40;85.50;;;19.46;73.91;97356.63;5040352;28;20947;-69
2022/06/24 03:51:00;;;;;;;2.53;1.90;;;20.30;85.90;;;19.52;74.07;97356.28;5017874;28;20462;-71
2022/06/24 03:53:28;;;;;;;4.73;2.33;;;20.30;86.30;;;19.44;74.67;97356.91;5022801;28;20462;-71
2022/06/24 03:55:55;;;;;;;4.73;2.50;;;20.30;86.80;;;19.31;75.62;97365.78;5025392;28;20539;-71
2022/06/24 03:58:23;;;;;;;4.27;2.10;;;20.10;87.40;;;19.21;75.56;97344.81;5026283;28;20463;-70
2022/06/24 04:00:50;;;;;;;2.80;2.20;;;20.10;87.50;;;19.03;77.25;97362.75;5017152;28;20512;-71
2022/06/24 04:03:17;;;;;;;3.80;2.60;;;19.90;88.70;;;19.17;76.83;97355.50;5025500;27;20493;-71
2022/06/24 04:05:45;;;;;;;9.23;2.43;;;19.90;89.20;;;19.14;77.24;97355.28;5026040;28;20457;-71
2022/06/24 04:08:12;;;;;;;3.37;1.83;;;19.90;89.60;;;19.26;78.22;97353.00;5028462;28;20472;-73
2022/06/24 04:10:41;;;;;;;6.53;2.53;;;20.00;90.30;;;19.17;77.81;97354.72;5019632;27;20458;-71
2022/06/24 04:13:08;;;;;;;6.73;2.40;;;20.00;90.00;;;19.25;77.59;97357.63;5023071;27;20468;-71
2022/06/24 04:15:35;;;;;;;5.13;2.20;;;20.00;90.10;;;19.13;78.72;97354.47;5021962;27;20481;-74
2022/06/24 04:18:02;;;;;;;2.87;2.30;;;20.00;90.30;;;18.95;79.91;97356.78;5017601;27;20514;-72
2022/06/24 04:20:30;;;;;;;4.80;1.90;;;19.80;91.00;;;18.94;80.97;97341.47;5026789;27;20450;-73
2022/06/24 04:22:57;;;;;;;3.63;2.80;;;19.80;91.90;;;18.80;81.28;97344.03;5038624;28;20480;-73
2022/06/24 04:25:25;;;;;;;2.93;2.00;;;19.60;91.80;;;18.49;82.70;97324.28;5024607;28;20470;-77
2022/06/24 04:27:53;;;;;;;3.57;2.20;;;19.40;93.00;;;18.57;83.74;97348.28;5024120;27;20457;-72
2022/06/24 04:30:21;;;;;;;3.97;2.10;;;19.30;94.00;;;18.41;84.53;97355.78;5019131;28;20545;-78
2022/06/24 04:32:48;;;;;;;3.77;2.53;;;19.20;94.50;;;18.25;86.31;97335.91;5026607;28;20461;-78
2022/06/24 04:35:15;;;;;;;9.03;2.50;;;19.00;95.90;;;18.16;90.17;97326.69;5012329;28;21003;-80
2022/06/24 04:37:43;;;;;;;6.80;2.23;;;18.90;99.90;;;18.01;91.32;97339.31;5037760;28;20462;-77
2022/06/24 04:40:13;;;;;;;5.33;2.30;;;18.80;99.90;;;17.97;92.00;97351.91;5081805;28;20458;-78
2022/06/24 04:42:40;;;;;;;5.40;2.67;;;18.80;99.90;;;17.95;93.69;97362.28;5087183;28;20503;-78
2022/06/24 04:45:10;;;;;;;3.13;2.43;;;18.70;99.90;;;18.05;94.96;97343.13;5027458;28;20470;-80
2022/06/24 04:47:37;;;;;;;3.77;2.70;;;18.80;99.90;;;18.00;92.68;97345.88;5024776;28;20455;-78
2022/06/24 04:50:06;;;;;;;3.53;2.63;;;18.80;99.90;;;18.06;92.31;97360.38;5039919;27;20468;-78
2022/06/24 04:52:33;;;;;;;4.33;3.10;;;18.80;99.90;;;17.84;91.24;97359.59;5019767;28;20458;-78
2022/06/24 04:55:01;;;;;;;6.67;3.20;;;18.80;99.90;;;18.01;94.31;97361.16;5025486;28;20494;-77
2022/06/24 04:57:29;;;;;;;7.10;3.63;;;18.80;99.90;;;17.95;93.65;97365.00;5024634;28;20546;-82
2022/06/24 04:59:57;;;;;;;3.60;2.53;;;18.80;99.90;;;17.84;93.77;97364.22;5021512;28;20488;-76
2022/06/24 05:02:26;;;;;;;4.27;2.90;;;18.70;99.90;;;17.83;93.74;97362.59;5017463;28;20528;-77
2022/06/24 05:04:53;;;;;;;8.77;3.17;;;18.60;99.90;;;17.92;98.65;97366.41;5018188;27;20447;-79
2022/06/24 05:07:20;;;;;;;6.47;3.20;;;18.70;99.90;;;17.94;97.68;97368.84;5026596;27;20964;-79
2022/06/24 05:09:48;;;;;;;5.30;2.53;;;18.70;99.90;;;18.05;92.98;97370.47;5023321;27;20471;-80
2022/06/24 05:12:15;;;;;;;3.20;2.90;;;18.80;99.90;;;17.93;93.34;97364.47;5020852;28;20459;-78
2022/06/24 05:14:43;;;;;;;3.30;2.67;;;18.80;99.90;;;18.27;92.80;97383.75;5016966;28;20457;-79
2022/06/24 05:17:10;;;;;;;3.70;2.97;;;18.90;99.90;;;18.34;91.86;97388.91;5014261;28;21015;-78
2022/06/24 05:19:38;;;;;;;5.23;3.00;;;19.00;99.90;;;18.28;93.82;97390.06;5017687;27;20569;-78
2022/06/24 05:22:06;;;;;;;5.43;2.97;;;19.00;99.90;;;18.26;93.20;97384.03;5014830;28;20495;-77
2022/06/24 05:24:33;;;;;;;2.90;2.40;;;19.00;99.90;;;18.13;93.66;97388.19;5014718;28;20460;-77
2022/06/24 05:27:01;;;;;;;2.97;2.77;;;18.90;99.90;;;18.19;94.80;97391.72;5017461;28;20455;-77
2022/06/24 05:29:28;;;;;;;5.20;3.07;;;18.90;99.90;;;18.27;94.30;97382.94;5023231;27;20518;-81
2022/06/24 05:31:56;;;;;;;3.93;2.90;;;19.10;99.90;;;18.49;94.34;97395.41;5013751;28;20454;-75
2022/06/24 05:34:23;;;;;;;7.30;3.10;;;19.10;99.90;;;18.37;93.97;97388.34;5022134;28;20469;-76
2022/06/24 05:36:52;;;;;;;3.70;3.17;;;19.20;99.90;;;18.65;93.53;97398.84;5024483;28;20485;-75
2022/06/24 05:39:19;;;;;;;11.30;3.87;;;19.30;99.90;;;18.68;93.15;97407.31;5019854;28;20464;-76
2022/06/24 05:41:46;;;;;;;6.50;2.67;;;19.30;99.90;;;18.86;91.00;97405.00;5023978;28;20481;-77
2022/06/24 05:44:13;;;;;;;5.50;3.30;;;19.60;99.90;;;19.19;89.62;97402.59;5024904;28;20476;-76
2022/06/24 05:46:41;;;;;;;3.27;2.77;;;19.80;99.90;;;19.43;86.54;97395.56;5023179;28;20457;-78
2022/06/24 05:49:09;;;;;;;5.10;3.90;;;20.00;97.80;;;19.58;87.13;97397.31;5024363;28;20442;-77
2022/06/24 05:51:36;;;;;;;5.93;4.33;;;20.20;98.40;;;19.78;86.33;97386.13;5026309;28;20461;-77
2022/06/24 05:56:50;;;;;;;6.53;3.87;;;20.70;94.90;;;20.38;82.70;97393.09;5022002;28;20478;-77
2022/06/24 05:59:17;;;;;;;5.90;4.30;;;21.00;95.00;;;20.82;80.36;97387.56;5022732;28;20460;-76
2022/06/24 06:01:45;;;;;;;5.83;4.90;;;21.40;93.30;;;20.97;79.61;97380.22;5020985;28;20530;-76
2022/06/24 06:04:12;;;;;;;4.40;3.93;;;21.70;92.70;;;20.64;78.58;97387.25;5022866;28;20441;-80
2022/06/24 06:06:40;;;;;;;11.30;4.23;;;21.50;91.60;;;20.67;78.17;97383.13;5026049;27;20486;-78
2022/06/24 06:09:10;;;;;;;7.87;4.07;;;21.50;91.00;;;20.74;77.40;97361.59;5018419;28;20557;-80
2022/06/24 06:11:37;;;;;;;8.30;4.17;;;21.70;91.10;;;21.19;76.08;97388.63;5020110;28;20979;-80
2022/06/24 06:14:05;;;;;;;7.27;4.30;;;21.80;90.70;;;22.63;71.03;97384.22;5015639;28;21022;-78
2022/06/24 06:16:32;;;;;;;7.50;3.30;;;23.00;88.60;;;23.11;66.82;97382.00;5016379;28;20527;-79
2022/06/24 06:18:59;;;;;;;3.90;3.50;;;24.00;84.70;;;22.59;68.42;97377.72;5034836;28;20451;-78
2022/06/24 06:21:27;;;;;;;5.13;3.70;;;23.80;84.50;;;22.68;67.31;97335.69;5017125;27;20601;-77
2022/06/24 06:23:54;;;;;;;5.30;3.20;;;23.80;84.40;;;23.85;64.24;97356.94;5011480;28;20466;-77
2022/06/24 06:26:23;;;;;;;3.90;2.77;;;24.40;83.50;;;24.78;59.67;97372.75;5015687;28;20526;-78
2022/06/24 06:28:50;;;;;;;7.17;2.80;;;25.80;79.30;;;24.71;59.83;97367.69;5021775;28;20505;-76
2022/06/24 06:31:17;;;;;;;4.77;2.60;;;25.80;78.50;;;23.59;63.50;97376.97;5022682;28;20448;-77
2022/06/24 06:33:44;;;;;;;5.93;2.97;;;25.20;79.30;;;22.57;66.30;97379.13;5019919;28;20457;-78
2022/06/24 06:36:13;;;;;;;4.57;2.90;;;24.20;80.20;;;22.21;68.32;97380.69;5036948;28;21136;-78
2022/06/24 06:38:41;;;;;;;4.87;3.03;;;23.40;82.70;;;22.22;68.58;97374.09;5021591;28;20455;-75
2022/06/24 06:41:09;;;;;;;14.00;3.20;;;23.20;83.50;;;22.10;69.46;97374.59;5017112;28;20462;-78
2022/06/24 06:43:38;;;;;;;6.77;4.90;;;23.10;84.10;;;21.87;69.55;97374.53;5007143;28;20463;-81
2022/06/24 06:46:10;;;;;;;9.20;3.20;;;22.90;84.20;;;22.28;67.73;97372.84;5034532;27;20462;-78
2022/06/24 06:48:37;;;;;;;5.68;3.50;;;22.90;83.70;;;22.11;68.76;97383.69;5019674;28;20514;-79
2022/06/24 06:51:04;;;;;;;5.18;3.40;;;22.90;84.10;;;21.78;68.44;97381.84;5025836;28;20461;-80
2022/06/24 06:53:31;;;;;;;6.90;3.50;;;22.80;83.40;;;21.55;69.93;97389.13;5019797;28;20201;-82
2022/06/24 06:55:59;;;;;;;4.00;3.03;;;22.40;84.40;;;21.67;69.66;97383.16;5016103;28;20518;-80
2022/06/24 06:58:26;;;;;;;5.47;2.87;;;22.30;84.80;;;21.73;68.92;97370.97;5014402;28;20466;-80
2022/06/24 07:00:55;;;;;;;4.77;3.37;;;22.40;84.40;;;21.61;69.45;97338.44;5023279;28;20463;-80
2022/06/24 07:03:22;;;;;;;5.33;3.20;;;22.60;84.60;;;21.78;68.52;97324.13;5020241;28;20465;-82
2022/06/24 07:05:50;;;;;;;5.37;3.00;;;22.70;84.50;;;22.10;68.53;97365.56;5024674;28;20519;-80
2022/06/24 07:08:17;;;;;;;5.07;3.50;;;22.80;84.40;;;22.31;66.88;97328.22;5026904;28;20535;-80
2022/06/24 07:10:45;;;;;;;3.83;3.10;;;23.10;84.10;;;22.28;68.05;97342.59;5021543;28;20462;-80
2022/06/24 07:13:13;;;;;;;4.93;3.77;;;23.10;84.00;;;22.11;69.16;97334.19;5018151;28;20552;-79
2022/06/24 07:15:41;;;;;;;6.90;3.30;;;23.00;84.50;;;21.43;68.45;97305.25;5037522;28;21063;-80
2022/06/24 07:18:10;;;;;;;4.73;3.60;;;22.60;83.60;;;22.02;68.64;97345.88;5023698;28;20862;-78
2022/06/24 07:20:37;;;;;;;4.17;3.13;;;22.60;84.50;;;21.90;69.47;97335.41;5028455;28;20805;-78
2022/06/24 07:23:05;;;;;;;5.23;3.10;;;22.60;84.80;;;22.13;68.25;97342.94;5020608;28;20470;-80
2022/06/24 07:25:33;;;;;;;4.40;3.10;;;22.70;84.60;;;21.65;69.72;97296.31;5029053;27;20596;-80
2022/06/24 07:28:00;;;;;;;7.70;3.87;;;22.60;85.00;;;21.84;69.95;97327.56;5026567;28;20447;-78
2022/06/24 07:30:29;;;;;;;9.10;4.13;;;22.40;85.30;;;21.65;70.74;97329.31;5029120;28;20543;-78
2022/06/24 07:32:57;;;;;;;7.27;4.57;;;22.40;85.70;;;21.46;71.93;97332.13;5023835;28;20472;-79
2022/06/24 07:35:26;;;;;;;6.13;4.60;;;22.20;86.30;;;21.15;73.36;97332.66;5028798;27;20499;-78
2022/06/24 07:37:53;;;;;;;6.33;3.90;;;22.00;87.30;;;21.35;72.48;97330.69;5027867;27;20466;-78
2022/06/24 07:40:20;;;;;;;7.20;3.83;;;22.00;87.20;;;21.23;72.55;97328.44;5039152;28;20458;-79
2022/06/24 07:42:48;;;;;;;6.50;3.47;;;21.90;87.20;;;21.28;71.29;97327.50;5017675;27;20457;-78
2022/06/24 07:45:15;;;;;;;5.27;2.83;;;21.90;86.30;;;21.56;68.64;97320.13;5024760;28;20828;-80
2022/06/24 07:47:43;;;;;;;10.13;3.70;;;22.10;85.30;;;21.16;70.06;97279.41;5022031;27;20521;-79
2022/06/24 07:50:10;;;;;;;3.73;3.33;;;22.00;85.60;;;21.34;71.88;97307.88;5040861;27;20494;-78
2022/06/24 07:52:39;;;;;;;7.47;3.70;;;22.10;86.50;;;21.61;72.36;97311.78;5024582;28;20458;-79
2022/06/24 07:57:53;;;;;;;6.10;3.50;;;22.50;87.00;;;22.03;70.59;97311.75;5022871;28;20450;-78
2022/06/24 08:00:21;;;;;;;4.53;4.00;;;22.60;86.70;;;22.20;69.07;97297.38;5025914;27;20463;-82
2022/06/24 08:02:48;;;;;;;5.20;3.23;;;22.90;85.90;;;23.12;66.25;97309.22;5017447;28;20467;-78
2022/06/24 08:05:16;;;;;;;4.80;3.07;;;23.40;85.00;;;22.92;65.59;97311.41;5026387;28;20456;-78
2022/06/24 08:07:45;;;;;;;4.63;3.10;;;23.70;83.50;;;23.13;65.98;97299.03;5029349;27;20865;-79
2022/06/24 08:10:12;;;;;;;6.13;3.70;;;23.90;83.80;;;23.00;66.61;97312.56;5028968;27;20443;-79
2022/06/24 08:12:40;;;;;;;11.20;4.30;;;23.70;83.90;;;23.58;64.49;97306.41;5022327;27;20534;-79
2022/06/24 08:15:08;;;;;;;7.90;3.83;;;24.00;83.30;;;23.01;66.12;97305.13;5023199;28;20454;-78
2022/06/24 08:17:36;;;;;;;6.47;3.80;;;23.90;83.40;;;23.68;64.67;97319.91;5011807;28;20475;-78
2022/06/24 08:20:03;;;;;;;5.80;4.20;;;24.10;83.30;;;23.74;63.77;97315.88;5025857;27;20538;-78
2022/06/24 08:22:31;;;;;;;5.33;3.47;;;24.40;82.30;;;24.53;61.99;97315.22;5025183;27;20948;-79
2022/06/24 08:24:59;;;;;;;7.90;3.70;;;24.90;82.10;;;24.17;61.87;97305.28;5020561;27;20453;-78
2022/06/24 08:27:27;;;;;;;8.90;4.00;;;24.90;80.80;;;23.75;62.95;97306.47;5024129;28;20458;-80
2022/06/24 08:29:54;;;;;;;9.67;3.43;;;24.60;81.10;;;24.84;59.77;97289.41;5022279;27;21059;-79
2022/06/24 08:32:22;;;;;;;3.83;3.10;;;25.20;80.10;;;23.66;61.26;97297.34;5042561;27;20474;-80
2022/06/24 08:34:49;;;;;;;9.00;3.37;;;24.60;78.90;;;23.33;61.94;97294.97;5019320;27;20460;-79
2022/06/24 08:37:17;;;;;;;5.83;2.80;;;24.10;79.30;;;24.15;59.77;97294.59;5022806;27;21006;-79
2022/06/24 08:39:44;;;;;;;4.00;2.60;;;24.40;79.40;;;24.07;59.68;97259.50;5022986;28;21019;-80
2022/06/24 08:42:14;;;;;;;7.50;2.97;;;24.60;79.00;;;23.94;59.22;97282.50;5024889;27;20470;-78
2022/06/24 08:44:41;;;;;;;5.20;2.83;;;24.70;77.90;;;24.57;58.56;97291.34;5013943;28;20988;-80
2022/06/24 08:47:15;;;;;;;9.83;3.90;;;25.00;78.10;;;24.47;58.51;97289.72;5019064;28;20459;-79
2022/06/24 08:49:42;;;;;;;4.37;2.77;;;25.20;77.30;;;24.85;56.85;97295.72;5018862;27;20486;-80
2022/06/24 08:52:12;;;;;;;5.50;2.60;;;25.30;76.20;;;24.80;56.93;97299.50;5017861;28;20484;-79
2022/06/24 08:54:44;;;;;;;4.13;2.60;;;25.50;75.60;;;25.03;55.62;97285.47;5016514;28;20811;-80
2022/06/24 08:57:13;;;;;;;5.00;2.70;;;25.50;75.00;;;24.64;56.69;97295.56;5019560;27;20482;-79
2022/06/24 08:59:42;;;;;;;4.20;2.67;;;25.40;74.90;;;24.74;55.94;97293.28;5020691;27;20564;-79
2022/06/24 09:02:13;;;;;;;6.57;2.43;;;25.40;74.00;;;24.84;55.56;97294.09;5022763;27;20466;-79
2022/06/24 09:04:44;;;;;;;4.87;2.60;;;25.60;73.30;;;25.08;54.50;97288.03;5022286;28;21278;-79
2022/06/24 09:07:18;;;;;;;4.10;2.27;;;25.50;73.20;;;25.62;53.49;97288.69;5020821;27;20595;-78
2022/06/24 09:09:58;;;;;;;8.07;3.00;;;26.00;72.80;;;25.73;52.10;97296.31;5030145;28;20465;-78
2022/06/24 09:12:30;;;;;;;5.23;2.23;;;26.20;71.00;;;25.81;51.25;97285.50;5023939;28;20526;-79
2022/06/24 09:15:02;;;;;;;5.10;2.77;;;26.40;69.60;;;25.78;51.96;97291.72;5025830;28;20458;-79
2022/06/24 09:17:31;;;;;;;6.80;3.00;;;26.30;69.90;;;25.57;53.25;97286.94;5023346;27;20546;-81
2022/06/24 09:20:11;;;;;;;3.40;2.67;;;26.40;70.50;;;25.24;53.45;97288.34;5020961;28;20466;-80
2022/06/24 09:22:39;;;;;;;3.43;2.90;;;25.90;70.60;;;25.87;51.66;97292.50;5016079;27;20451;-80
2022/06/24 09:25:08;;;;;;;5.30;3.40;;;26.30;70.00;;;26.06;51.91;97291.22;5042217;27;20965;-80
2022/06/24 09:27:44;;;;;;;6.13;3.83;;;26.50;70.20;;;25.72;53.14;97297.44;5021202;27;20470;-80
2022/06/24 09:30:13;;;;;;;4.47;2.90;;;26.40;70.30;;;26.06;51.77;97286.50;5026702;28;20517;-79
2022/06/24 09:32:51;;;;;;;5.60;3.17;;;26.50;69.60;;;25.64;52.83;97289.19;5029341;27;20455;-79
2022/06/24 09:35:18;;;;;;;4.53;2.90;;;26.40;69.70;;;25.56;53.26;97279.81;5023534;27;20543;-79
2022/06/24 09:37:48;;;;;;;3.27;2.50;;;26.40;69.80;;;25.23;54.56;97285.88;5023235;28;20474;-79
2022/06/24 09:40:24;;;;;;;3.70;2.60;;;26.10;70.60;;;25.17;55.60;97277.78;5031752;27;20947;-80
2022/06/24 09:43:01;;;;;;;3.63;2.70;;;25.90;71.50;;;25.43;53.94;97265.84;5012966;28;21189;-78
2022/06/24 09:45:46;;;;;;;3.87;2.83;;;26.00;71.10;;;25.68;52.97;97266.06;5033752;28;20462;-79
2022/06/24 09:48:28;;;;;;;4.33;2.53;;;26.40;70.10;;;25.43;54.46;97276.88;5020782;28;20549;-79
2022/06/24 09:50:57;;;;;;;6.23;3.20;;;26.20;70.60;;;25.42;54.53;97275.28;5018608;27;20454;-80
2022/06/24 09:53:25;;;;;;;5.00;3.30;;;26.20;70.50;;;25.14;54.47;97264.63;5021258;27;20488;-80
2022/06/24 09:55:53;;;;;;;6.03;3.03;;;26.00;70.30;;;26.12;52.33;97262.19;5023105;28;20446;-79
2022/06/24 09:58:23;;;;;;;4.17;2.57;;;26.40;70.10;;;26.47;50.06;97256.44;5033863;28;20483;-80
2022/06/24 10:00:50;;;;;;;3.33;3.00;;;26.90;67.80;;;26.54;50.44;97267.75;5033523;27;20513;-80
2022/06/24 10:03:18;;;;;;;4.40;2.90;;;27.10;67.80;;;26.01;51.41;97257.09;5013811;28;20461;-79
2022/06/24 10:05:48;;;;;;;4.80;3.43;;;27.00;67.50;;;26.25;52.21;97257.59;5022216;28;20495;-80
2022/06/24 10:08:17;;;;;;;7.17;3.20;;;26.90;68.70;;;25.90;52.91;97255.84;5029716;28;20454;-80
2022/06/24 10:10:49;;;;;;;4.00;3.10;;;26.60;69.00;;;25.37;54.42;97256.09;5023819;28;20470;-80
2022/06/24 10:13:26;;;;;;;6.50;3.30;;;26.30;69.60;;;24.87;55.68;97261.13;5023307;28;20468;-79
2022/06/24 10:15:57;;;;;;;5.53;3.20;;;25.70;70.20;;;25.41;54.75;97251.53;5036344;27;20521;-80
2022/06/24 10:18:31;;;;;;;3.83;2.60;;;26.00;70.80;;;26.19;53.31;97248.69;5028872;27;20509;-80
2022/06/24 10:21:02;;;;;;;6.87;3.40;;;26.50;70.40;;;25.95;52.55;97252.88;5008869;28;20447;-78
2022/06/24 10:23:45;;;;;;;3.67;2.63;;;26.70;69.00;;;26.18;52.16;97244.28;5019505;28;20478;-80
2022/06/24 10:26:16;;;;;;;5.93;3.50;;;26.80;68.90;;;26.60;50.29;97251.75;5020829;28;20837;-81
2022/06/24 10:29:37;;;;;;;4.83;2.90;;;27.10;67.40;;;26.75;49.83;97255.81;5038989;27;21036;-78
2022/06/24 10:32:08;;;;;;;7.83;2.83;;;27.30;66.90;;;26.37;50.16;97246.56;5037779;27;20469;-80
2022/06/24 10:34:38;;;;;;;4.27;2.70;;;27.30;66.60;;;26.30;50.30;97236.03;5018786;28;20992;-81